Hauptseite
METAR-TAF:

METAR-TAF

Flughäfen :

Flughafen Sønderborg

Sønderborg, Dänemark

Breite: 54-58N, Länge: 009-47E, Höhe: 7 m

Beobachtung

Neuester Wetterbericht von vor 27 Minuten, um 04:50 UTC
Wind 8 kt aus Ost
Temperatur 12°C
Luftfeuchtigkeit 88%
Luftdruck 1025 hPa
Sichtweite 10 km oder mehr

METAR: EKSB 210450Z AUTO 10008KT 9999NDV NCD 12/10 Q1025

Zeit: 07:17 (05:17 UTC)

Prognose

Neuester Wetterbericht von vor 14 Stunden und 26 Minuten, um 14:51 UTC
Gültige Prognose vom 20 um 15 UTC bis 20 um 19 UTC
Wind 10 kt aus Ost/Südost
Sichtweite 10 km oder mehr
keine Wolken unter 1500 m und keine Kumulonimbus oder Gewitterwolken

TAF: EKSB 201451Z 2015/2019 12010KT CAVOK

Wetterbeobachtungen und Prognosen von mehr als 4000 Flughäfen (METAR und TAF Bericht).

Die verfügbaren Stationen werden durch gelbe und rote Markierungen auf der Karte dargestellt.

Führen Sie die Maus auf sie, um den Namen der Station zu sehen.

Darauf klicken, um die Beobachtung von Wetterbeobachtungen und Prognosen zu sehen.

Um die Karte zu ändern : klicken Sie auf den grünen Tasten mit einem schwarzen Kreuz Zum Vergrößern, auf den grünen Button mit einem Gedankenstrich zu verkleinern, oder auf die grünen Pfeile für benachbarte Karten.


METAR-TAF: